createdAt,value
2018-11-06T00:00:24.298Z,80.38
2018-11-06T00:05:14.653Z,80.79
2018-11-06T00:09:57.608Z,80.21
2018-11-06T00:14:40.569Z,79.72
2018-11-06T00:19:24.662Z,80.33
2018-11-06T00:24:07.818Z,80.00
2018-11-06T00:28:54.495Z,79.67
2018-11-06T00:33:37.339Z,79.32
2018-11-06T00:38:21.289Z,79.62
2018-11-06T00:43:04.146Z,80.52
2018-11-06T00:47:46.994Z,80.22
2018-11-06T00:52:30.980Z,80.29
2018-11-06T00:57:13.812Z,79.63
2018-11-06T01:01:56.796Z,79.64
2018-11-06T01:06:39.701Z,80.40
2018-11-06T01:11:22.763Z,79.85
2018-11-06T01:16:06.011Z,79.85
2018-11-06T01:20:49.010Z,80.10
2018-11-06T01:25:31.884Z,79.70
2018-11-06T01:30:18.299Z,78.57
2018-11-06T01:35:01.148Z,79.65
2018-11-06T01:39:45.158Z,80.46
2018-11-06T01:44:28.045Z,80.42
2018-11-06T01:49:10.964Z,80.34
2018-11-06T01:53:53.875Z,79.57
2018-11-06T01:58:38.008Z,80.20
2018-11-06T02:03:20.886Z,80.04
2018-11-06T02:08:05.491Z,79.70
2018-11-06T02:12:48.409Z,79.63
2018-11-06T02:17:31.295Z,79.03
2018-11-06T02:22:15.290Z,79.42
2018-11-06T02:26:58.223Z,78.99
2018-11-06T02:31:41.218Z,78.55
2018-11-06T02:36:24.083Z,79.19
2018-11-06T02:41:09.025Z,78.56
2018-11-06T02:45:51.907Z,79.21
2018-11-06T02:50:34.830Z,80.00
2018-11-06T02:55:17.687Z,79.75
2018-11-06T03:00:00.583Z,79.73
2018-11-06T03:04:43.446Z,79.98
2018-11-06T03:09:26.408Z,79.77
2018-11-06T03:14:09.291Z,79.37
2018-11-06T03:18:54.137Z,79.04
2018-11-06T03:23:36.990Z,79.58
2018-11-06T03:28:19.904Z,80.05
2018-11-06T03:33:02.785Z,80.82
2018-11-06T03:37:46.734Z,81.85
2018-11-06T03:42:29.605Z,81.67
2018-11-06T03:47:12.462Z,82.85
2018-11-06T03:51:56.443Z,82.01
2018-11-06T03:56:39.311Z,83.17
2018-11-06T04:01:22.433Z,83.68
2018-11-06T04:06:05.392Z,84.64
2018-11-06T04:10:48.449Z,85.15
2018-11-06T04:15:31.410Z,85.50
2018-11-06T04:20:14.475Z,85.94
2018-11-06T04:24:57.328Z,85.57
2018-11-06T04:29:41.257Z,86.04
2018-11-06T04:34:24.143Z,87.44
2018-11-06T04:39:09.240Z,86.41
2018-11-06T04:43:53.096Z,88.36
2018-11-06T04:48:36.130Z,86.77
2018-11-06T04:53:19.055Z,87.21
2018-11-06T04:58:02.817Z,87.68
2018-11-06T05:02:45.698Z,86.55
2018-11-06T05:07:28.620Z,87.79
2018-11-06T05:12:11.517Z,87.85
2018-11-06T05:16:54.397Z,88.71
2018-11-06T05:21:38.338Z,88.65
2018-11-06T05:26:21.226Z,88.02
2018-11-06T05:31:04.402Z,88.04
2018-11-06T05:35:47.340Z,88.07
2018-11-06T05:40:41.384Z,88.40
2018-11-06T05:45:24.514Z,87.71
2018-11-06T05:50:07.794Z,87.46
2018-11-06T05:54:50.731Z,87.35
2018-11-06T05:59:34.794Z,87.41
2018-11-06T06:04:17.703Z,87.17
2018-11-06T06:09:02.134Z,86.54
2018-11-06T06:13:45.402Z,86.74
2018-11-06T06:18:28.493Z,85.84
2018-11-06T06:23:11.557Z,86.11
2018-11-06T06:27:55.023Z,85.70
2018-11-06T06:32:38.338Z,85.41
2018-11-06T06:37:21.376Z,85.41
2018-11-06T06:42:04.944Z,85.19
2018-11-06T06:46:48.065Z,85.09
2018-11-06T06:51:32.098Z,84.83
2018-11-06T06:56:14.966Z,85.21
2018-11-06T07:00:59.162Z,85.27
2018-11-06T07:07:49.343Z,86.18
2018-11-06T07:12:32.734Z,87.42
2018-11-06T07:17:16.823Z,88.21
2018-11-06T07:21:59.738Z,89.41
2018-11-06T07:26:42.663Z,89.70
2018-11-06T07:31:26.758Z,89.84
2018-11-06T07:36:09.847Z,89.85
2018-11-06T07:40:53.140Z,90.00
2018-11-06T07:45:36.069Z,89.40
2018-11-06T07:50:23.005Z,89.60
2018-11-06T07:55:07.451Z,89.51
2018-11-06T07:59:50.617Z,89.64
2018-11-06T08:04:33.496Z,89.21
2018-11-06T08:09:16.413Z,88.92
2018-11-06T08:13:59.285Z,88.01
2018-11-06T08:18:43.131Z,87.92
2018-11-06T08:32:27.328Z,87.53
2018-11-06T08:37:11.018Z,85.77
2018-11-06T08:41:53.864Z,85.76
2018-11-06T08:46:37.091Z,86.31
2018-11-06T08:51:21.159Z,85.52
2018-11-06T08:56:04.378Z,85.15
2018-11-06T09:00:50.985Z,85.00
2018-11-06T09:05:33.890Z,84.26
2018-11-06T09:10:17.430Z,83.64
2018-11-06T09:15:00.287Z,84.06
2018-11-06T09:19:44.309Z,83.43
2018-11-06T09:24:27.169Z,84.59
2018-11-06T09:29:10.118Z,84.16
2018-11-06T09:33:53.079Z,85.17
2018-11-06T09:38:37.245Z,86.31
2018-11-06T09:43:20.158Z,86.36
2018-11-06T09:48:07.774Z,86.55
2018-11-06T09:54:20.038Z,86.28
2018-11-06T09:59:04.187Z,86.35
2018-11-06T10:03:47.105Z,87.09
2018-11-06T10:08:30.227Z,89.13
2018-11-06T10:13:13.135Z,89.40
2018-11-06T10:17:59.643Z,89.44
2018-11-06T10:22:42.644Z,89.64
2018-11-06T10:27:26.580Z,88.55
2018-11-06T10:32:09.464Z,88.06
2018-11-06T10:36:57.725Z,87.73
2018-11-06T10:41:40.929Z,87.41
2018-11-06T10:46:24.160Z,87.04
2018-11-06T10:51:10.734Z,87.19
2018-11-06T10:55:53.626Z,86.96
2018-11-06T11:00:43.352Z,87.51
2018-11-06T11:05:27.712Z,87.69
2018-11-06T11:10:10.762Z,87.57
2018-11-06T11:14:53.661Z,87.91
2018-11-06T11:19:40.661Z,88.63
2018-11-06T11:24:23.528Z,87.76
2018-11-06T11:29:07.439Z,87.86
2018-11-06T11:33:50.427Z,87.49
2018-11-06T11:38:34.351Z,87.52
2018-11-06T11:43:17.353Z,87.26
2018-11-06T11:48:00.435Z,87.03
2018-11-06T11:52:43.513Z,87.15
2018-11-06T11:57:29.789Z,86.99
2018-11-06T12:02:12.673Z,85.12
2018-11-06T12:06:56.843Z,84.82
2018-11-06T12:11:39.771Z,84.12
2018-11-06T12:16:27.208Z,83.82
2018-11-06T12:21:10.090Z,83.00
2018-11-06T12:25:53.110Z,83.84
2018-11-06T12:30:36.913Z,82.21
2018-11-06T12:35:19.814Z,82.36
2018-11-06T12:40:06.370Z,81.86
2018-11-06T12:44:49.257Z,81.64
2018-11-06T12:49:32.228Z,81.10
2018-11-06T12:54:15.133Z,81.32
2018-11-06T12:58:59.337Z,81.33
2018-11-06T13:05:11.610Z,80.93
2018-11-06T13:09:54.694Z,80.75
2018-11-06T13:14:37.698Z,80.45
2018-11-06T13:19:21.659Z,79.30
2018-11-06T13:24:05.006Z,79.55
2018-11-06T13:28:49.372Z,79.47
2018-11-06T13:33:32.242Z,78.51
2018-11-06T13:38:16.294Z,79.56
2018-11-06T13:42:59.313Z,78.69
2018-11-06T13:47:44.367Z,79.30
2018-11-06T13:52:27.274Z,77.86
2018-11-06T13:57:11.141Z,78.38
2018-11-06T14:01:54.098Z,78.98
2018-11-06T14:06:37.129Z,78.60
2018-11-06T14:11:19.987Z,78.60
2018-11-06T14:16:02.896Z,79.42
2018-11-06T14:20:49.364Z,78.28
2018-11-06T14:25:32.247Z,78.78
2018-11-06T14:30:18.151Z,78.63
2018-11-06T14:35:01.104Z,78.96
2018-11-06T14:39:45.080Z,77.55
2018-11-06T14:44:27.952Z,78.43
2018-11-06T14:49:12.965Z,77.88
2018-11-06T14:53:55.852Z,77.61
2018-11-06T14:58:42.775Z,77.54
2018-11-06T15:03:25.655Z,77.70
2018-11-06T15:08:09.743Z,77.24
2018-11-06T15:12:52.619Z,76.56
2018-11-06T15:17:37.579Z,78.03
2018-11-06T15:22:20.463Z,77.16
2018-11-06T15:27:04.399Z,76.94
2018-11-06T15:31:47.345Z,75.93
2018-11-06T15:36:34.009Z,76.46
2018-11-06T15:41:16.995Z,77.20
2018-11-06T15:46:01.017Z,76.73
2018-11-06T15:50:43.991Z,76.03
2018-11-06T15:55:26.935Z,75.82
2018-11-06T16:00:15.089Z,75.45
2018-11-06T16:04:58.024Z,76.40
2018-11-06T16:09:41.120Z,75.06
2018-11-06T16:14:24.069Z,74.73
2018-11-06T16:19:07.971Z,74.87
2018-11-06T16:23:50.906Z,74.72
2018-11-06T16:28:34.918Z,74.84
2018-11-06T16:33:17.837Z,74.25
2018-11-06T16:38:01.953Z,75.18
2018-11-06T16:42:45.862Z,75.31
2018-11-06T16:47:29.892Z,74.85
2018-11-06T16:52:12.888Z,75.76
2018-11-06T16:56:56.856Z,75.33
2018-11-06T17:01:39.809Z,76.25
2018-11-06T17:06:29.191Z,76.49
2018-11-06T17:11:12.150Z,76.42
2018-11-06T17:15:55.269Z,76.25
2018-11-06T17:20:38.189Z,74.99
2018-11-06T17:25:21.999Z,76.41
2018-11-06T17:30:06.603Z,76.58
2018-11-06T17:34:49.811Z,77.41
2018-11-06T17:39:32.874Z,76.73
2018-11-06T17:44:15.892Z,76.88
2018-11-06T17:48:59.027Z,77.19
2018-11-06T17:53:41.971Z,76.91
2018-11-06T17:58:26.068Z,77.13
2018-11-06T18:03:09.024Z,77.23
2018-11-06T18:07:52.430Z,77.71
2018-11-06T18:12:35.643Z,77.55
2018-11-06T18:17:18.585Z,77.08
2018-11-06T18:22:01.803Z,76.86
2018-11-06T18:26:44.966Z,76.88
2018-11-06T18:31:28.006Z,77.48
2018-11-06T18:36:11.523Z,78.05
2018-11-06T18:40:54.483Z,77.81
2018-11-06T18:45:38.357Z,77.31
2018-11-06T18:50:21.537Z,77.79
2018-11-06T18:55:04.927Z,78.43
2018-11-06T18:59:47.960Z,79.11
2018-11-06T19:04:31.009Z,79.77
2018-11-06T19:09:13.938Z,80.04
2018-11-06T19:13:56.848Z,80.79
2018-11-06T19:18:40.138Z,80.32
2018-11-06T19:23:24.606Z,79.30
2018-11-06T19:28:08.450Z,79.87
2018-11-06T19:32:51.405Z,79.23
2018-11-06T19:37:34.571Z,78.79
2018-11-06T19:42:17.575Z,78.22
2018-11-06T19:47:02.655Z,78.13
2018-11-06T19:51:45.585Z,78.26
2018-11-06T19:56:28.728Z,78.16
2018-11-06T20:01:11.673Z,77.78
2018-11-06T20:05:57.712Z,77.16
2018-11-06T20:10:40.960Z,77.54
2018-11-06T20:15:24.100Z,76.56
2018-11-06T20:20:09.896Z,76.82
2018-11-06T20:24:54.332Z,77.06
2018-11-06T20:35:17.446Z,76.37
2018-11-06T20:40:07.599Z,77.01
2018-11-06T20:44:57.848Z,76.38
2018-11-06T20:49:46.792Z,76.04
2018-11-06T20:54:33.025Z,76.54
2018-11-06T21:09:37.635Z,76.00
2018-11-06T21:14:45.483Z,75.75
2018-11-06T21:19:30.000Z,76.04
2018-11-06T21:24:13.924Z,75.10
2018-11-06T21:28:57.288Z,75.68
2018-11-06T21:33:40.209Z,75.22
2018-11-06T21:38:24.624Z,75.62
2018-11-06T21:43:07.581Z,74.61
2018-11-06T21:48:00.711Z,74.52
2018-11-06T21:52:54.850Z,74.63
2018-11-06T21:57:41.340Z,73.62
2018-11-06T22:02:29.471Z,73.09
2018-11-06T22:07:14.473Z,72.75
2018-11-06T22:11:57.768Z,73.13
2018-11-06T22:16:41.105Z,73.36
2018-11-06T22:21:26.057Z,72.64
2018-11-06T22:26:16.035Z,72.66
2018-11-06T22:31:15.918Z,72.48
2018-11-06T22:36:15.488Z,71.67
2018-11-06T22:41:11.320Z,71.15
2018-11-06T22:46:16.614Z,70.74
2018-11-06T22:55:58.908Z,70.63
2018-11-06T23:00:47.634Z,71.59
2018-11-06T23:05:34.089Z,72.01
2018-11-06T23:10:27.194Z,72.16
2018-11-06T23:15:12.794Z,71.42
2018-11-06T23:20:04.679Z,70.27
2018-11-06T23:25:12.678Z,69.76
2018-11-06T23:30:13.178Z,69.09
